sensor_id;sensor_type;location;lat;lon;timestamp;temperature;humidity
3037;DHT22;1528;52.550;13.408;2022-07-29T00:01:43;17.60;17.60
3037;DHT22;1528;52.550;13.408;2022-07-29T00:04:30;17.70;17.80
3037;DHT22;1528;52.550;13.408;2022-07-29T00:07:17;17.60;17.70
3037;DHT22;1528;52.550;13.408;2022-07-29T00:10:04;17.70;17.60
3037;DHT22;1528;52.550;13.408;2022-07-29T00:12:54;17.60;18.00
3037;DHT22;1528;52.550;13.408;2022-07-29T00:15:47;17.40;18.60
3037;DHT22;1528;52.550;13.408;2022-07-29T00:18:35;17.30;18.80
3037;DHT22;1528;52.550;13.408;2022-07-29T00:21:22;17.20;19.10
3037;DHT22;1528;52.550;13.408;2022-07-29T00:24:09;17.50;19.60
3037;DHT22;1528;52.550;13.408;2022-07-29T00:26:56;17.30;19.00
3037;DHT22;1528;52.550;13.408;2022-07-29T00:29:43;17.40;18.60
3037;DHT22;1528;52.550;13.408;2022-07-29T00:32:30;17.30;19.10
3037;DHT22;1528;52.550;13.408;2022-07-29T00:35:18;17.20;19.40
3037;DHT22;1528;52.550;13.408;2022-07-29T00:38:34;17.30;19.10
3037;DHT22;1528;52.550;13.408;2022-07-29T00:41:21;17.30;19.20
3037;DHT22;1528;52.550;13.408;2022-07-29T00:44:08;17.40;19.30
3037;DHT22;1528;52.550;13.408;2022-07-29T00:46:55;17.20;19.70
3037;DHT22;1528;52.550;13.408;2022-07-29T00:49:42;17.10;19.80
3037;DHT22;1528;52.550;13.408;2022-07-29T00:52:31;17.10;19.90
3037;DHT22;1528;52.550;13.408;2022-07-29T00:55:19;17.20;20.00
3037;DHT22;1528;52.550;13.408;2022-07-29T00:58:12;17.20;19.90
3037;DHT22;1528;52.550;13.408;2022-07-29T01:01:00;17.20;19.90
3037;DHT22;1528;52.550;13.408;2022-07-29T01:03:48;17.10;20.40
3037;DHT22;1528;52.550;13.408;2022-07-29T01:06:35;17.20;20.10
3037;DHT22;1528;52.550;13.408;2022-07-29T01:09:24;17.20;19.90
3037;DHT22;1528;52.550;13.408;2022-07-29T01:12:11;17.10;20.40
3037;DHT22;1528;52.550;13.408;2022-07-29T01:14:59;17.20;20.20
3037;DHT22;1528;52.550;13.408;2022-07-29T01:17:54;17.20;20.10
3037;DHT22;1528;52.550;13.408;2022-07-29T01:20:59;17.00;20.40
3037;DHT22;1528;52.550;13.408;2022-07-29T01:24:11;16.90;21.00
3037;DHT22;1528;52.550;13.408;2022-07-29T01:27:12;16.80;21.20
3037;DHT22;1528;52.550;13.408;2022-07-29T01:30:07;16.80;21.30
3037;DHT22;1528;52.550;13.408;2022-07-29T01:33:00;16.90;21.10
3037;DHT22;1528;52.550;13.408;2022-07-29T01:35:48;16.80;21.40
3037;DHT22;1528;52.550;13.408;2022-07-29T01:38:36;16.70;21.70
3037;DHT22;1528;52.550;13.408;2022-07-29T01:41:26;16.70;21.90
3037;DHT22;1528;52.550;13.408;2022-07-29T01:44:18;16.70;21.60
3037;DHT22;1528;52.550;13.408;2022-07-29T01:47:12;16.60;21.90
3037;DHT22;1528;52.550;13.408;2022-07-29T01:50:03;16.60;22.00
3037;DHT22;1528;52.550;13.408;2022-07-29T01:52:56;16.70;21.70
3037;DHT22;1528;52.550;13.408;2022-07-29T01:55:45;16.80;21.80
3037;DHT22;1528;52.550;13.408;2022-07-29T01:58:32;16.50;22.30
3037;DHT22;1528;52.550;13.408;2022-07-29T02:01:22;16.60;22.00
3037;DHT22;1528;52.550;13.408;2022-07-29T02:04:11;16.70;22.00
3037;DHT22;1528;52.550;13.408;2022-07-29T02:07:02;16.60;22.20
3037;DHT22;1528;52.550;13.408;2022-07-29T02:09:50;16.60;22.00
3037;DHT22;1528;52.550;13.408;2022-07-29T02:12:39;16.50;22.30
3037;DHT22;1528;52.550;13.408;2022-07-29T02:15:31;16.40;22.60
3037;DHT22;1528;52.550;13.408;2022-07-29T02:18:21;16.40;22.60
3037;DHT22;1528;52.550;13.408;2022-07-29T02:21:10;16.40;22.70
3037;DHT22;1528;52.550;13.408;2022-07-29T02:24:01;16.30;23.00
3037;DHT22;1528;52.550;13.408;2022-07-29T02:26:50;16.20;23.20
3037;DHT22;1528;52.550;13.408;2022-07-29T02:29:37;16.20;23.30
3037;DHT22;1528;52.550;13.408;2022-07-29T02:32:26;16.30;22.90
3037;DHT22;1528;52.550;13.408;2022-07-29T02:35:16;16.40;22.80
3037;DHT22;1528;52.550;13.408;2022-07-29T02:38:05;16.40;22.60
3037;DHT22;1528;52.550;13.408;2022-07-29T02:41:11;16.40;22.80
3037;DHT22;1528;52.550;13.408;2022-07-29T02:44:09;16.30;23.00
3037;DHT22;1528;52.550;13.408;2022-07-29T02:47:16;16.40;23.00
3037;DHT22;1528;52.550;13.408;2022-07-29T02:50:09;16.40;23.00
3037;DHT22;1528;52.550;13.408;2022-07-29T02:53:00;16.50;22.80
3037;DHT22;1528;52.550;13.408;2022-07-29T02:55:55;16.40;22.90
3037;DHT22;1528;52.550;13.408;2022-07-29T02:58:47;16.30;23.20
3037;DHT22;1528;52.550;13.408;2022-07-29T03:01:36;16.20;23.40
3037;DHT22;1528;52.550;13.408;2022-07-29T03:04:26;16.20;23.30
3037;DHT22;1528;52.550;13.408;2022-07-29T03:07:14;16.10;23.80
3037;DHT22;1528;52.550;13.408;2022-07-29T03:10:06;16.20;23.50
3037;DHT22;1528;52.550;13.408;2022-07-29T03:12:55;16.30;23.40
3037;DHT22;1528;52.550;13.408;2022-07-29T03:15:43;16.10;23.70
3037;DHT22;1528;52.550;13.408;2022-07-29T03:18:31;16.30;23.50
3037;DHT22;1528;52.550;13.408;2022-07-29T03:21:19;16.20;23.40
3037;DHT22;1528;52.550;13.408;2022-07-29T03:24:06;16.20;23.80
3037;DHT22;1528;52.550;13.408;2022-07-29T03:26:55;16.20;23.70
3037;DHT22;1528;52.550;13.408;2022-07-29T03:29:44;16.20;23.70
3037;DHT22;1528;52.550;13.408;2022-07-29T03:32:31;16.30;23.50
3037;DHT22;1528;52.550;13.408;2022-07-29T03:35:17;16.50;23.00
3037;DHT22;1528;52.550;13.408;2022-07-29T03:38:05;16.30;23.30
3037;DHT22;1528;52.550;13.408;2022-07-29T03:40:54;16.30;23.30
3037;DHT22;1528;52.550;13.408;2022-07-29T03:43:43;16.30;23.60
3037;DHT22;1528;52.550;13.408;2022-07-29T03:46:33;16.30;23.60
3037;DHT22;1528;52.550;13.408;2022-07-29T03:49:20;16.30;23.50
3037;DHT22;1528;52.550;13.408;2022-07-29T03:52:08;16.20;23.60
3037;DHT22;1528;52.550;13.408;2022-07-29T03:54:55;16.10;23.60
3037;DHT22;1528;52.550;13.408;2022-07-29T03:57:43;16.30;23.50
3037;DHT22;1528;52.550;13.408;2022-07-29T04:00:32;16.40;23.50
3037;DHT22;1528;52.550;13.408;2022-07-29T04:03:21;16.30;23.40
3037;DHT22;1528;52.550;13.408;2022-07-29T04:06:08;16.30;23.60
3037;DHT22;1528;52.550;13.408;2022-07-29T04:08:55;16.40;23.60
3037;DHT22;1528;52.550;13.408;2022-07-29T04:11:42;16.20;23.80
3037;DHT22;1528;52.550;13.408;2022-07-29T04:14:32;16.30;23.70
3037;DHT22;1528;52.550;13.408;2022-07-29T04:17:19;16.40;23.40
3037;DHT22;1528;52.550;13.408;2022-07-29T04:20:09;16.40;23.50
3037;DHT22;1528;52.550;13.408;2022-07-29T04:22:58;16.50;23.30
3037;DHT22;1528;52.550;13.408;2022-07-29T04:25:45;16.50;23.50
3037;DHT22;1528;52.550;13.408;2022-07-29T04:28:32;16.50;23.20
3037;DHT22;1528;52.550;13.408;2022-07-29T04:31:19;16.50;23.40
3037;DHT22;1528;52.550;13.408;2022-07-29T04:34:06;16.40;23.60
3037;DHT22;1528;52.550;13.408;2022-07-29T04:36:55;16.40;23.50
3037;DHT22;1528;52.550;13.408;2022-07-29T04:39:43;16.60;23.10
3037;DHT22;1528;52.550;13.408;2022-07-29T04:42:29;16.80;22.70
3037;DHT22;1528;52.550;13.408;2022-07-29T04:45:17;16.80;22.70
3037;DHT22;1528;52.550;13.408;2022-07-29T04:48:04;16.70;22.80
3037;DHT22;1528;52.550;13.408;2022-07-29T04:50:52;16.90;22.70
3037;DHT22;1528;52.550;13.408;2022-07-29T04:53:40;16.80;22.80
3037;DHT22;1528;52.550;13.408;2022-07-29T04:56:27;16.90;23.00
3037;DHT22;1528;52.550;13.408;2022-07-29T04:59:14;17.00;22.20
3037;DHT22;1528;52.550;13.408;2022-07-29T05:02:01;17.00;22.20
3037;DHT22;1528;52.550;13.408;2022-07-29T05:04:48;17.00;22.30
3037;DHT22;1528;52.550;13.408;2022-07-29T05:07:35;16.90;22.50
3037;DHT22;1528;52.550;13.408;2022-07-29T05:10:23;17.00;22.50
3037;DHT22;1528;52.550;13.408;2022-07-29T05:13:11;17.10;22.40
3037;DHT22;1528;52.550;13.408;2022-07-29T05:15:58;17.30;22.00
3037;DHT22;1528;52.550;13.408;2022-07-29T05:18:48;17.30;22.00
3037;DHT22;1528;52.550;13.408;2022-07-29T05:21:35;17.40;21.70
3037;DHT22;1528;52.550;13.408;2022-07-29T05:24:22;17.60;21.20
3037;DHT22;1528;52.550;13.408;2022-07-29T05:27:11;17.60;21.20
3037;DHT22;1528;52.550;13.408;2022-07-29T05:29:58;17.70;21.10
3037;DHT22;1528;52.550;13.408;2022-07-29T05:32:45;18.00;21.00
3037;DHT22;1528;52.550;13.408;2022-07-29T05:35:32;18.10;20.60
3037;DHT22;1528;52.550;13.408;2022-07-29T05:38:22;18.10;20.70
3037;DHT22;1528;52.550;13.408;2022-07-29T05:41:10;18.20;20.50
3037;DHT22;1528;52.550;13.408;2022-07-29T05:43:58;18.10;20.30
3037;DHT22;1528;52.550;13.408;2022-07-29T05:46:45;18.10;20.50
3037;DHT22;1528;52.550;13.408;2022-07-29T05:49:32;18.20;20.50
3037;DHT22;1528;52.550;13.408;2022-07-29T05:52:19;18.20;20.40
3037;DHT22;1528;52.550;13.408;2022-07-29T05:55:07;18.30;20.30
3037;DHT22;1528;52.550;13.408;2022-07-29T05:57:57;18.30;20.40
3037;DHT22;1528;52.550;13.408;2022-07-29T06:00:48;18.40;20.20
3037;DHT22;1528;52.550;13.408;2022-07-29T06:03:35;18.50;19.90
3037;DHT22;1528;52.550;13.408;2022-07-29T06:06:27;18.70;19.60
3037;DHT22;1528;52.550;13.408;2022-07-29T06:09:13;18.80;19.20
3037;DHT22;1528;52.550;13.408;2022-07-29T06:11:58;19.00;18.80
3037;DHT22;1528;52.550;13.408;2022-07-29T06:14:44;19.20;18.60
3037;DHT22;1528;52.550;13.408;2022-07-29T06:17:31;19.30;18.20
3037;DHT22;1528;52.550;13.408;2022-07-29T06:20:16;19.50;18.70
3037;DHT22;1528;52.550;13.408;2022-07-29T06:23:02;19.60;17.80
3037;DHT22;1528;52.550;13.408;2022-07-29T06:25:48;19.70;17.70
3037;DHT22;1528;52.550;13.408;2022-07-29T06:28:34;19.80;17.80
3037;DHT22;1528;52.550;13.408;2022-07-29T06:31:19;19.80;17.30
3037;DHT22;1528;52.550;13.408;2022-07-29T06:34:06;20.00;17.10
3037;DHT22;1528;52.550;13.408;2022-07-29T06:36:52;20.10;16.70
3037;DHT22;1528;52.550;13.408;2022-07-29T06:39:37;20.20;16.60
3037;DHT22;1528;52.550;13.408;2022-07-29T06:42:23;20.50;16.50
3037;DHT22;1528;52.550;13.408;2022-07-29T06:45:12;20.40;16.80
3037;DHT22;1528;52.550;13.408;2022-07-29T06:47:57;20.50;16.60
3037;DHT22;1528;52.550;13.408;2022-07-29T07:26:57;21.30;14.00
3037;DHT22;1528;52.550;13.408;2022-07-29T07:29:45;21.40;14.30
3037;DHT22;1528;52.550;13.408;2022-07-29T07:32:34;21.50;14.10
3037;DHT22;1528;52.550;13.408;2022-07-29T07:35:22;21.70;13.50
3037;DHT22;1528;52.550;13.408;2022-07-29T07:38:10;21.60;13.40
3037;DHT22;1528;52.550;13.408;2022-07-29T07:40:58;21.70;13.90
3037;DHT22;1528;52.550;13.408;2022-07-29T07:43:49;21.90;13.40
3037;DHT22;1528;52.550;13.408;2022-07-29T07:46:37;22.00;12.90
3037;DHT22;1528;52.550;13.408;2022-07-29T07:49:25;22.00;13.00
3037;DHT22;1528;52.550;13.408;2022-07-29T07:52:13;22.10;13.10
3037;DHT22;1528;52.550;13.408;2022-07-29T07:55:00;22.20;12.30
3037;DHT22;1528;52.550;13.408;2022-07-29T07:57:48;22.30;12.10
3037;DHT22;1528;52.550;13.408;2022-07-29T08:00:37;22.40;11.70
3037;DHT22;1528;52.550;13.408;2022-07-29T08:03:26;22.50;11.60
3037;DHT22;1528;52.550;13.408;2022-07-29T08:06:15;22.70;11.50
3037;DHT22;1528;52.550;13.408;2022-07-29T08:09:04;22.90;10.90
3037;DHT22;1528;52.550;13.408;2022-07-29T08:11:52;23.00;10.30
3037;DHT22;1528;52.550;13.408;2022-07-29T08:14:40;23.10;10.20
3037;DHT22;1528;52.550;13.408;2022-07-29T08:17:30;23.20;10.30
3037;DHT22;1528;52.550;13.408;2022-07-29T08:20:17;23.30;9.90
3037;DHT22;1528;52.550;13.408;2022-07-29T08:23:05;23.40;9.30
3037;DHT22;1528;52.550;13.408;2022-07-29T08:25:53;23.40;9.20
3037;DHT22;1528;52.550;13.408;2022-07-29T08:28:42;23.50;8.90
3037;DHT22;1528;52.550;13.408;2022-07-29T08:31:30;23.60;8.90
3037;DHT22;1528;52.550;13.408;2022-07-29T08:34:18;23.50;8.60
3037;DHT22;1528;52.550;13.408;2022-07-29T08:37:04;23.60;8.90
3037;DHT22;1528;52.550;13.408;2022-07-29T08:39:51;23.70;7.90
3037;DHT22;1528;52.550;13.408;2022-07-29T08:42:38;23.70;8.00
3037;DHT22;1528;52.550;13.408;2022-07-29T08:45:25;23.70;7.80
3037;DHT22;1528;52.550;13.408;2022-07-29T08:48:12;23.80;7.50
3037;DHT22;1528;52.550;13.408;2022-07-29T08:51:03;23.90;7.20
3037;DHT22;1528;52.550;13.408;2022-07-29T08:53:51;24.00;7.10
3037;DHT22;1528;52.550;13.408;2022-07-29T08:56:40;24.10;6.70
3037;DHT22;1528;52.550;13.408;2022-07-29T08:59:31;24.10;6.80
3037;DHT22;1528;52.550;13.408;2022-07-29T09:02:22;24.10;6.00
3037;DHT22;1528;52.550;13.408;2022-07-29T09:05:12;24.00;6.60
3037;DHT22;1528;52.550;13.408;2022-07-29T09:08:03;24.00;6.20
3037;DHT22;1528;52.550;13.408;2022-07-29T09:10:52;24.10;6.10
3037;DHT22;1528;52.550;13.408;2022-07-29T09:13:41;24.10;5.90
3037;DHT22;1528;52.550;13.408;2022-07-29T09:16:47;24.20;5.50
3037;DHT22;1528;52.550;13.408;2022-07-29T09:19:37;24.30;5.30
3037;DHT22;1528;52.550;13.408;2022-07-29T09:22:30;24.40;5.40
3037;DHT22;1528;52.550;13.408;2022-07-29T09:25:35;24.60;5.10
3037;DHT22;1528;52.550;13.408;2022-07-29T09:28:24;24.80;4.70
3037;DHT22;1528;52.550;13.408;2022-07-29T09:31:12;24.90;4.50
3037;DHT22;1528;52.550;13.408;2022-07-29T09:34:01;25.00;5.00
3037;DHT22;1528;52.550;13.408;2022-07-29T09:36:50;25.20;4.30
3037;DHT22;1528;52.550;13.408;2022-07-29T09:39:39;25.30;3.70
3037;DHT22;1528;52.550;13.408;2022-07-29T09:42:33;25.50;3.60
3037;DHT22;1528;52.550;13.408;2022-07-29T09:45:29;25.70;3.20
3037;DHT22;1528;52.550;13.408;2022-07-29T09:48:18;25.80;2.40
3037;DHT22;1528;52.550;13.408;2022-07-29T09:51:17;26.00;2.30
3037;DHT22;1528;52.550;13.408;2022-07-29T09:54:23;26.10;2.10
3037;DHT22;1528;52.550;13.408;2022-07-29T09:57:24;26.10;2.10
3037;DHT22;1528;52.550;13.408;2022-07-29T10:00:17;26.20;1.30
3037;DHT22;1528;52.550;13.408;2022-07-29T10:03:06;26.30;1.40
3037;DHT22;1528;52.550;13.408;2022-07-29T10:06:07;26.30;1.20
3037;DHT22;1528;52.550;13.408;2022-07-29T10:09:07;26.30;1.10
3037;DHT22;1528;52.550;13.408;2022-07-29T10:12:07;26.40;1.00
3037;DHT22;1528;52.550;13.408;2022-07-29T10:14:55;26.60;1.00
3037;DHT22;1528;52.550;13.408;2022-07-29T10:17:46;26.70;1.00
3037;DHT22;1528;52.550;13.408;2022-07-29T10:20:35;27.00;1.00
3037;DHT22;1528;52.550;13.408;2022-07-29T10:23:23;27.00;1.00
3037;DHT22;1528;52.550;13.408;2022-07-29T10:26:12;27.10;1.00
3037;DHT22;1528;52.550;13.408;2022-07-29T10:29:01;27.00;1.00
3037;DHT22;1528;52.550;13.408;2022-07-29T10:31:58;27.20;1.00
3037;DHT22;1528;52.550;13.408;2022-07-29T10:35:08;27.50;1.00
3037;DHT22;1528;52.550;13.408;2022-07-29T10:41:36;27.60;1.00
3037;DHT22;1528;52.550;13.408;2022-07-29T10:44:29;27.60;1.00
3037;DHT22;1528;52.550;13.408;2022-07-29T10:47:23;27.80;1.00
3037;DHT22;1528;52.550;13.408;2022-07-29T10:50:15;28.10;1.00
3037;DHT22;1528;52.550;13.408;2022-07-29T10:53:03;28.40;1.00
3037;DHT22;1528;52.550;13.408;2022-07-29T10:55:52;28.50;1.00
3037;DHT22;1528;52.550;13.408;2022-07-29T10:58:42;28.40;1.00
3037;DHT22;1528;52.550;13.408;2022-07-29T11:01:31;28.70;1.00
3037;DHT22;1528;52.550;13.408;2022-07-29T11:04:59;29.10;1.00
3037;DHT22;1528;52.550;13.408;2022-07-29T11:08:22;29.40;1.00
3037;DHT22;1528;52.550;13.408;2022-07-29T11:11:34;29.40;1.00
3037;DHT22;1528;52.550;13.408;2022-07-29T11:14:55;29.50;1.00
3037;DHT22;1528;52.550;13.408;2022-07-29T11:18:07;29.50;1.00
3037;DHT22;1528;52.550;13.408;2022-07-29T11:20:55;29.40;1.00
3037;DHT22;1528;52.550;13.408;2022-07-29T11:23:46;29.40;1.00
3037;DHT22;1528;52.550;13.408;2022-07-29T11:26:35;29.40;1.00
3037;DHT22;1528;52.550;13.408;2022-07-29T11:29:23;29.30;1.00
3037;DHT22;1528;52.550;13.408;2022-07-29T11:32:13;29.70;1.00
3037;DHT22;1528;52.550;13.408;2022-07-29T11:35:15;30.60;1.00
3037;DHT22;1528;52.550;13.408;2022-07-29T11:38:24;31.00;1.00
3037;DHT22;1528;52.550;13.408;2022-07-29T11:41:24;31.20;1.00
3037;DHT22;1528;52.550;13.408;2022-07-29T11:44:15;31.40;1.00
3037;DHT22;1528;52.550;13.408;2022-07-29T11:47:04;31.40;1.00
3037;DHT22;1528;52.550;13.408;2022-07-29T11:49:55;31.70;1.00
3037;DHT22;1528;52.550;13.408;2022-07-29T11:52:45;32.20;1.00
3037;DHT22;1528;52.550;13.408;2022-07-29T11:55:37;33.10;1.00
3037;DHT22;1528;52.550;13.408;2022-07-29T11:58:28;33.50;1.00
3037;DHT22;1528;52.550;13.408;2022-07-29T12:01:17;33.90;1.00
3037;DHT22;1528;52.550;13.408;2022-07-29T12:04:07;34.00;1.00
3037;DHT22;1528;52.550;13.408;2022-07-29T12:06:55;34.30;1.00
3037;DHT22;1528;52.550;13.408;2022-07-29T12:09:51;34.80;1.00
3037;DHT22;1528;52.550;13.408;2022-07-29T12:12:39;37.90;1.00
3037;DHT22;1528;52.550;13.408;2022-07-29T12:15:30;41.10;1.00
3037;DHT22;1528;52.550;13.408;2022-07-29T12:18:21;44.50;1.00
3037;DHT22;1528;52.550;13.408;2022-07-29T12:21:11;46.70;1.00
3037;DHT22;1528;52.550;13.408;2022-07-29T12:24:00;48.50;1.00
3037;DHT22;1528;52.550;13.408;2022-07-29T12:26:53;49.90;1.00
3037;DHT22;1528;52.550;13.408;2022-07-29T12:29:42;51.50;1.00
3037;DHT22;1528;52.550;13.408;2022-07-29T12:32:37;53.50;1.00
3037;DHT22;1528;52.550;13.408;2022-07-29T12:35:25;54.30;1.00
3037;DHT22;1528;52.550;13.408;2022-07-29T12:38:19;55.70;1.00
3037;DHT22;1528;52.550;13.408;2022-07-29T12:41:08;56.10;1.00
3037;DHT22;1528;52.550;13.408;2022-07-29T12:43:57;56.20;1.00
3037;DHT22;1528;52.550;13.408;2022-07-29T12:46:46;57.80;1.00
3037;DHT22;1528;52.550;13.408;2022-07-29T12:49:50;58.80;1.00
3037;DHT22;1528;52.550;13.408;2022-07-29T12:52:38;58.00;1.00
3037;DHT22;1528;52.550;13.408;2022-07-29T12:55:40;59.20;1.00
3037;DHT22;1528;52.550;13.408;2022-07-29T12:58:34;59.10;1.00
3037;DHT22;1528;52.550;13.408;2022-07-29T13:01:22;57.40;1.00
3037;DHT22;1528;52.550;13.408;2022-07-29T13:04:10;55.90;1.00
3037;DHT22;1528;52.550;13.408;2022-07-29T13:07:06;52.10;1.00
3037;DHT22;1528;52.550;13.408;2022-07-29T13:09:54;48.20;1.00
3037;DHT22;1528;52.550;13.408;2022-07-29T13:13:07;46.00;1.00
3037;DHT22;1528;52.550;13.408;2022-07-29T13:16:07;47.30;1.00
3037;DHT22;1528;52.550;13.408;2022-07-29T13:19:11;50.50;1.00
3037;DHT22;1528;52.550;13.408;2022-07-29T13:22:01;52.10;1.00
3037;DHT22;1528;52.550;13.408;2022-07-29T13:24:49;53.00;1.00
3037;DHT22;1528;52.550;13.408;2022-07-29T13:27:38;51.90;1.00
3037;DHT22;1528;52.550;13.408;2022-07-29T13:30:27;50.30;1.00
3037;DHT22;1528;52.550;13.408;2022-07-29T13:33:15;48.90;1.00
3037;DHT22;1528;52.550;13.408;2022-07-29T13:36:03;48.30;1.00
3037;DHT22;1528;52.550;13.408;2022-07-29T13:38:54;50.40;1.00
3037;DHT22;1528;52.550;13.408;2022-07-29T13:41:42;52.50;1.00
3037;DHT22;1528;52.550;13.408;2022-07-29T13:44:31;54.20;1.00
3037;DHT22;1528;52.550;13.408;2022-07-29T13:47:20;51.00;1.00
3037;DHT22;1528;52.550;13.408;2022-07-29T13:50:09;47.00;1.00
3037;DHT22;1528;52.550;13.408;2022-07-29T13:52:57;44.20;1.00
3037;DHT22;1528;52.550;13.408;2022-07-29T13:55:48;41.90;1.00
3037;DHT22;1528;52.550;13.408;2022-07-29T13:58:37;41.90;1.00
3037;DHT22;1528;52.550;13.408;2022-07-29T14:01:25;45.90;1.00
3037;DHT22;1528;52.550;13.408;2022-07-29T14:04:13;49.40;1.00
3037;DHT22;1528;52.550;13.408;2022-07-29T14:07:01;51.00;1.00
3037;DHT22;1528;52.550;13.408;2022-07-29T14:09:49;48.00;1.00
3037;DHT22;1528;52.550;13.408;2022-07-29T14:12:40;47.20;1.00
3037;DHT22;1528;52.550;13.408;2022-07-29T14:15:28;49.30;1.00
3037;DHT22;1528;52.550;13.408;2022-07-29T14:18:16;51.60;1.00
3037;DHT22;1528;52.550;13.408;2022-07-29T14:21:04;53.90;1.00
3037;DHT22;1528;52.550;13.408;2022-07-29T14:23:53;55.20;1.00
3037;DHT22;1528;52.550;13.408;2022-07-29T14:26:41;55.90;1.00
3037;DHT22;1528;52.550;13.408;2022-07-29T14:29:31;56.90;1.00
3037;DHT22;1528;52.550;13.408;2022-07-29T14:32:18;57.90;1.00
3037;DHT22;1528;52.550;13.408;2022-07-29T14:35:07;59.00;1.00
3037;DHT22;1528;52.550;13.408;2022-07-29T14:37:56;59.10;1.00
3037;DHT22;1528;52.550;13.408;2022-07-29T14:40:44;60.00;1.00
3037;DHT22;1528;52.550;13.408;2022-07-29T14:43:34;60.30;1.00
3037;DHT22;1528;52.550;13.408;2022-07-29T14:46:26;60.70;1.00
3037;DHT22;1528;52.550;13.408;2022-07-29T14:49:15;60.90;1.00
3037;DHT22;1528;52.550;13.408;2022-07-29T14:52:05;60.50;1.00
3037;DHT22;1528;52.550;13.408;2022-07-29T14:54:53;60.40;1.00
3037;DHT22;1528;52.550;13.408;2022-07-29T14:57:45;60.90;1.00
3037;DHT22;1528;52.550;13.408;2022-07-29T15:00:35;60.60;1.00
3037;DHT22;1528;52.550;13.408;2022-07-29T15:03:28;60.80;1.00
3037;DHT22;1528;52.550;13.408;2022-07-29T15:06:18;60.90;1.00
3037;DHT22;1528;52.550;13.408;2022-07-29T15:09:07;60.10;1.00
3037;DHT22;1528;52.550;13.408;2022-07-29T15:11:58;59.60;1.00
3037;DHT22;1528;52.550;13.408;2022-07-29T15:14:46;58.30;1.00
3037;DHT22;1528;52.550;13.408;2022-07-29T15:17:37;56.00;1.00
3037;DHT22;1528;52.550;13.408;2022-07-29T15:20:28;52.80;1.00
3037;DHT22;1528;52.550;13.408;2022-07-29T15:23:16;49.70;1.00
3037;DHT22;1528;52.550;13.408;2022-07-29T15:26:05;47.30;1.00
3037;DHT22;1528;52.550;13.408;2022-07-29T15:28:54;45.50;1.00
3037;DHT22;1528;52.550;13.408;2022-07-29T15:31:42;44.30;1.00
3037;DHT22;1528;52.550;13.408;2022-07-29T15:34:31;43.00;1.00
3037;DHT22;1528;52.550;13.408;2022-07-29T15:37:21;41.40;1.00
3037;DHT22;1528;52.550;13.408;2022-07-29T15:40:11;40.20;1.00
3037;DHT22;1528;52.550;13.408;2022-07-29T15:43:00;39.10;1.00
3037;DHT22;1528;52.550;13.408;2022-07-29T15:45:51;38.80;1.00
3037;DHT22;1528;52.550;13.408;2022-07-29T15:48:55;38.40;1.00
3037;DHT22;1528;52.550;13.408;2022-07-29T15:51:44;38.20;1.00
3037;DHT22;1528;52.550;13.408;2022-07-29T15:54:35;37.80;1.00
3037;DHT22;1528;52.550;13.408;2022-07-29T15:57:24;37.10;1.00
3037;DHT22;1528;52.550;13.408;2022-07-29T16:00:13;36.40;1.00
3037;DHT22;1528;52.550;13.408;2022-07-29T16:03:02;35.50;1.00
3037;DHT22;1528;52.550;13.408;2022-07-29T16:05:54;35.00;1.00
3037;DHT22;1528;52.550;13.408;2022-07-29T16:08:42;34.40;1.00
3037;DHT22;1528;52.550;13.408;2022-07-29T16:11:33;34.00;1.00
3037;DHT22;1528;52.550;13.408;2022-07-29T16:14:21;33.50;1.00
3037;DHT22;1528;52.550;13.408;2022-07-29T16:17:09;33.40;1.00
3037;DHT22;1528;52.550;13.408;2022-07-29T16:19:58;33.40;1.00
3037;DHT22;1528;52.550;13.408;2022-07-29T16:22:46;33.40;1.00
3037;DHT22;1528;52.550;13.408;2022-07-29T16:25:35;33.40;1.00
3037;DHT22;1528;52.550;13.408;2022-07-29T16:28:25;33.00;1.00
3037;DHT22;1528;52.550;13.408;2022-07-29T16:31:14;33.10;1.00
3037;DHT22;1528;52.550;13.408;2022-07-29T16:34:02;33.00;1.00
3037;DHT22;1528;52.550;13.408;2022-07-29T16:36:52;32.70;1.00
3037;DHT22;1528;52.550;13.408;2022-07-29T16:39:39;32.40;1.00
3037;DHT22;1528;52.550;13.408;2022-07-29T16:42:28;32.10;1.00
3037;DHT22;1528;52.550;13.408;2022-07-29T16:45:18;31.70;1.00
3037;DHT22;1528;52.550;13.408;2022-07-29T16:48:06;31.50;1.00
3037;DHT22;1528;52.550;13.408;2022-07-29T16:50:55;31.30;1.00
3037;DHT22;1528;52.550;13.408;2022-07-29T16:53:43;31.10;1.00
3037;DHT22;1528;52.550;13.408;2022-07-29T16:56:32;31.10;1.00
3037;DHT22;1528;52.550;13.408;2022-07-29T16:59:20;31.00;1.00
3037;DHT22;1528;52.550;13.408;2022-07-29T17:02:11;30.70;1.00
3037;DHT22;1528;52.550;13.408;2022-07-29T17:04:59;30.60;1.00
3037;DHT22;1528;52.550;13.408;2022-07-29T17:07:48;30.60;1.00
3037;DHT22;1528;52.550;13.408;2022-07-29T17:10:37;30.50;1.00
3037;DHT22;1528;52.550;13.408;2022-07-29T17:13:25;30.40;1.00
3037;DHT22;1528;52.550;13.408;2022-07-29T17:16:13;30.30;1.00
3037;DHT22;1528;52.550;13.408;2022-07-29T17:19:03;30.20;1.00
3037;DHT22;1528;52.550;13.408;2022-07-29T17:21:52;30.20;1.00
3037;DHT22;1528;52.550;13.408;2022-07-29T17:24:40;30.10;1.00
3037;DHT22;1528;52.550;13.408;2022-07-29T17:27:30;29.80;1.00
3037;DHT22;1528;52.550;13.408;2022-07-29T17:30:18;29.80;1.00
3037;DHT22;1528;52.550;13.408;2022-07-29T17:33:07;29.50;1.00
3037;DHT22;1528;52.550;13.408;2022-07-29T17:35:57;29.20;1.00
3037;DHT22;1528;52.550;13.408;2022-07-29T17:39:06;29.10;1.00
3037;DHT22;1528;52.550;13.408;2022-07-29T17:41:55;28.70;1.00
3037;DHT22;1528;52.550;13.408;2022-07-29T17:44:44;28.60;1.00
3037;DHT22;1528;52.550;13.408;2022-07-29T17:47:32;28.50;1.00
3037;DHT22;1528;52.550;13.408;2022-07-29T17:50:22;28.30;1.00
3037;DHT22;1528;52.550;13.408;2022-07-29T17:53:14;28.30;1.00
3037;DHT22;1528;52.550;13.408;2022-07-29T17:56:03;28.10;1.00
3037;DHT22;1528;52.550;13.408;2022-07-29T17:58:50;28.10;1.00
3037;DHT22;1528;52.550;13.408;2022-07-29T18:01:38;28.00;1.00
3037;DHT22;1528;52.550;13.408;2022-07-29T18:04:27;27.90;1.00
3037;DHT22;1528;52.550;13.408;2022-07-29T18:07:15;27.80;1.00
3037;DHT22;1528;52.550;13.408;2022-07-29T18:10:06;27.70;1.00
3037;DHT22;1528;52.550;13.408;2022-07-29T18:12:55;27.60;1.00
3037;DHT22;1528;52.550;13.408;2022-07-29T18:15:44;27.50;1.00
3037;DHT22;1528;52.550;13.408;2022-07-29T18:18:33;27.30;1.00
3037;DHT22;1528;52.550;13.408;2022-07-29T18:21:21;27.20;1.00
3037;DHT22;1528;52.550;13.408;2022-07-29T18:24:10;27.00;1.00
3037;DHT22;1528;52.550;13.408;2022-07-29T18:26:59;27.00;1.00
3037;DHT22;1528;52.550;13.408;2022-07-29T18:29:47;26.80;1.00
3037;DHT22;1528;52.550;13.408;2022-07-29T18:32:35;26.70;1.00
3037;DHT22;1528;52.550;13.408;2022-07-29T18:35:23;26.60;1.00
3037;DHT22;1528;52.550;13.408;2022-07-29T18:38:11;26.50;1.00
3037;DHT22;1528;52.550;13.408;2022-07-29T18:40:59;26.40;1.00
3037;DHT22;1528;52.550;13.408;2022-07-29T18:43:49;26.30;1.00
3037;DHT22;1528;52.550;13.408;2022-07-29T18:46:37;26.20;1.00
3037;DHT22;1528;52.550;13.408;2022-07-29T18:49:25;26.20;1.00
3037;DHT22;1528;52.550;13.408;2022-07-29T18:52:13;26.10;1.00
3037;DHT22;1528;52.550;13.408;2022-07-29T18:55:01;26.10;1.00
3037;DHT22;1528;52.550;13.408;2022-07-29T18:57:49;26.00;1.00
3037;DHT22;1528;52.550;13.408;2022-07-29T19:00:39;25.90;1.00
3037;DHT22;1528;52.550;13.408;2022-07-29T19:03:27;25.80;1.00